createdAt,value
2022-07-27T00:00:58.612Z,23.93
2022-07-27T00:04:20.027Z,23.98
2022-07-27T00:07:31.412Z,23.65
2022-07-27T00:10:38.357Z,22.08
2022-07-27T00:13:45.306Z,21.19
2022-07-27T00:16:50.989Z,19.60
2022-07-27T00:19:56.760Z,18.74
2022-07-27T00:23:14.309Z,18.27
2022-07-27T00:26:20.381Z,18.29
2022-07-27T00:29:29.224Z,18.23
2022-07-27T00:32:34.820Z,19.45
2022-07-27T00:35:41.166Z,19.52
2022-07-27T00:38:49.348Z,19.25
2022-07-27T00:41:54.972Z,20.79
2022-07-27T00:45:01.132Z,21.43
2022-07-27T00:48:09.637Z,20.02
2022-07-27T00:51:16.275Z,20.83
2022-07-27T00:54:29.092Z,22.67
2022-07-27T00:57:57.957Z,21.46
2022-07-27T01:01:14.712Z,21.96
2022-07-27T01:04:20.314Z,23.10
2022-07-27T01:07:32.248Z,23.67
2022-07-27T01:10:41.873Z,26.16
2022-07-27T01:13:47.552Z,26.35
2022-07-27T01:16:54.544Z,25.79
2022-07-27T01:20:01.740Z,24.91
2022-07-27T01:23:09.961Z,22.28
2022-07-27T01:26:15.527Z,21.25
2022-07-27T01:29:24.335Z,19.93
2022-07-27T01:32:29.875Z,18.92
2022-07-27T01:35:39.341Z,18.15
2022-07-27T01:38:47.613Z,18.04
2022-07-27T01:41:59.876Z,17.62
2022-07-27T01:45:22.466Z,17.50
2022-07-27T01:48:31.643Z,17.63
2022-07-27T01:51:37.471Z,17.71
2022-07-27T01:54:45.798Z,17.85
2022-07-27T01:57:51.403Z,17.49
2022-07-27T02:00:57.337Z,17.69
2022-07-27T02:04:04.728Z,18.12
2022-07-27T02:07:10.473Z,18.58
2022-07-27T02:10:18.669Z,19.16
2022-07-27T02:13:39.971Z,22.33
2022-07-27T02:16:47.702Z,22.49
2022-07-27T02:19:53.373Z,21.18
2022-07-27T02:22:58.967Z,18.83
2022-07-27T02:26:09.708Z,18.20
2022-07-27T02:29:15.708Z,18.85
2022-07-27T02:32:21.338Z,18.88
2022-07-27T02:35:27.328Z,18.84
2022-07-27T02:38:38.905Z,18.16
2022-07-27T02:41:48.868Z,18.33
2022-07-27T02:44:56.422Z,18.65
2022-07-27T02:48:04.898Z,18.98
2022-07-27T02:51:15.337Z,19.43
2022-07-27T02:54:22.034Z,20.21
2022-07-27T02:57:35.959Z,21.58
2022-07-27T03:00:41.693Z,21.03
2022-07-27T03:03:53.279Z,21.74
2022-07-27T03:06:58.819Z,23.37
2022-07-27T03:10:11.683Z,23.03
2022-07-27T03:13:19.850Z,21.87
2022-07-27T03:16:26.082Z,24.00
2022-07-27T03:19:31.902Z,24.55
2022-07-27T03:22:37.649Z,25.11
2022-07-27T03:25:43.458Z,23.97
2022-07-27T03:28:51.666Z,24.16
2022-07-27T03:31:57.165Z,25.25
2022-07-27T03:35:08.945Z,24.11
2022-07-27T03:38:20.473Z,24.93
2022-07-27T03:41:26.082Z,24.76
2022-07-27T03:44:34.297Z,25.56
2022-07-27T03:47:40.205Z,25.11
2022-07-27T03:50:47.708Z,24.02
2022-07-27T03:53:53.296Z,23.08
2022-07-27T03:57:00.148Z,23.18
2022-07-27T04:00:29.073Z,23.16
2022-07-27T04:03:34.578Z,24.07
2022-07-27T04:06:40.185Z,25.23
2022-07-27T04:09:46.631Z,26.61
2022-07-27T04:12:56.109Z,28.00
2022-07-27T04:16:04.749Z,26.61
2022-07-27T04:19:11.115Z,25.86
2022-07-27T04:22:16.945Z,25.77
2022-07-27T04:25:22.565Z,25.07
2022-07-27T04:28:28.502Z,25.92
2022-07-27T04:31:36.988Z,26.27
2022-07-27T04:34:42.508Z,24.93
2022-07-27T04:37:59.053Z,27.88
2022-07-27T04:41:05.232Z,29.18
2022-07-27T04:44:10.802Z,32.04
2022-07-27T04:47:19.268Z,33.62
2022-07-27T04:50:25.464Z,30.07
2022-07-27T04:53:31.647Z,32.01
2022-07-27T04:56:37.410Z,27.41
2022-07-27T04:59:42.998Z,30.25
2022-07-27T05:02:51.190Z,35.01
2022-07-27T05:05:57.358Z,33.67
2022-07-27T05:09:09.180Z,27.24
2022-07-27T05:12:15.325Z,23.76
2022-07-27T05:15:21.635Z,19.31
2022-07-27T05:18:29.907Z,21.65
2022-07-27T05:21:35.976Z,19.28
2022-07-27T05:24:41.566Z,18.78
2022-07-27T05:27:51.045Z,19.20
2022-07-27T05:31:00.506Z,17.58
2022-07-27T05:34:08.606Z,18.01
2022-07-27T05:37:14.322Z,18.34
2022-07-27T05:40:19.992Z,18.37
2022-07-27T05:43:25.540Z,18.05
2022-07-27T05:46:33.423Z,18.68
2022-07-27T05:49:41.657Z,20.56
2022-07-27T05:52:47.791Z,20.44
2022-07-27T05:55:58.911Z,19.51
2022-07-27T05:59:08.852Z,18.96
2022-07-27T06:02:14.753Z,19.57
2022-07-27T06:05:22.976Z,19.37
2022-07-27T06:08:25.950Z,19.91
2022-07-27T06:11:31.682Z,20.16
2022-07-27T06:14:37.941Z,20.46
2022-07-27T06:17:44.301Z,21.19
2022-07-27T06:20:55.613Z,22.80
2022-07-27T06:24:01.547Z,24.78
2022-07-27T06:27:07.590Z,24.25
2022-07-27T06:30:16.337Z,24.68
2022-07-27T06:33:28.970Z,24.47
2022-07-27T06:36:40.069Z,23.89
2022-07-27T06:39:46.822Z,23.43
2022-07-27T06:42:52.594Z,23.46
2022-07-27T06:45:58.496Z,23.36
2022-07-27T06:49:04.079Z,23.01
2022-07-27T06:52:12.306Z,23.39
2022-07-27T06:55:17.941Z,25.42
2022-07-27T06:58:23.529Z,29.58
2022-07-27T07:01:29.231Z,29.13
2022-07-27T07:04:35.230Z,29.53
2022-07-27T07:07:47.608Z,29.90
2022-07-27T07:10:53.879Z,31.56
2022-07-27T07:13:59.472Z,32.04
2022-07-27T07:17:05.024Z,33.99
2022-07-27T07:20:12.750Z,35.47
2022-07-27T07:23:20.943Z,38.58
2022-07-27T07:26:26.490Z,39.25
2022-07-27T07:29:33.936Z,38.80
2022-07-27T07:32:39.521Z,38.20
2022-07-27T07:36:13.498Z,39.52
2022-07-27T07:39:20.201Z,37.53
2022-07-27T07:42:25.881Z,37.12
2022-07-27T07:45:33.619Z,36.94
2022-07-27T07:48:39.730Z,36.18
2022-07-27T07:51:48.029Z,36.42
2022-07-27T07:54:56.177Z,36.73
2022-07-27T07:58:05.288Z,37.88
2022-07-27T08:01:12.457Z,37.91
2022-07-27T08:04:18.305Z,38.55
2022-07-27T08:07:23.977Z,37.39
2022-07-27T08:10:32.554Z,40.05
2022-07-27T08:13:38.163Z,40.61
2022-07-27T08:16:48.480Z,37.78
2022-07-27T08:19:54.950Z,36.98
2022-07-27T08:23:00.823Z,35.35
2022-07-27T08:26:12.089Z,33.75
2022-07-27T08:29:17.916Z,34.27
2022-07-27T08:32:32.035Z,32.04
2022-07-27T08:35:38.675Z,34.41
2022-07-27T08:38:44.296Z,34.16
2022-07-27T08:41:58.200Z,33.17
2022-07-27T08:45:11.721Z,32.31
2022-07-27T08:48:25.191Z,32.85
2022-07-27T08:51:31.910Z,32.51
2022-07-27T08:54:39.489Z,33.75
2022-07-27T08:57:57.843Z,33.62
2022-07-27T09:01:16.266Z,32.58
2022-07-27T09:04:22.474Z,31.79
2022-07-27T09:07:32.428Z,32.65
2022-07-27T09:10:47.088Z,33.10
2022-07-27T09:14:07.864Z,31.62
2022-07-27T09:21:29.118Z,31.78
2022-07-27T09:25:08.057Z,31.97
2022-07-27T09:28:13.604Z,30.98
2022-07-27T09:31:25.395Z,29.51
2022-07-27T09:34:36.832Z,30.12
2022-07-27T09:37:42.547Z,29.21
2022-07-27T09:40:50.546Z,29.34
2022-07-27T09:44:31.322Z,28.96
2022-07-27T09:47:33.637Z,28.33
2022-07-27T09:50:53.044Z,26.68
2022-07-27T09:54:13.898Z,24.96
2022-07-27T09:57:27.514Z,25.10
2022-07-27T10:00:36.507Z,24.28
2022-07-27T10:03:46.186Z,22.85
2022-07-27T10:07:02.702Z,23.48
2022-07-27T10:10:30.172Z,23.91
2022-07-27T10:13:36.553Z,23.96
2022-07-27T10:16:53.897Z,24.05
2022-07-27T10:20:05.921Z,23.03
2022-07-27T10:23:11.912Z,22.57
2022-07-27T10:26:30.107Z,21.39
2022-07-27T10:29:35.796Z,22.65
2022-07-27T10:32:52.298Z,22.82
2022-07-27T10:36:02.494Z,20.80
2022-07-27T10:39:13.439Z,20.41
2022-07-27T10:42:34.187Z,21.07
2022-07-27T10:46:00.115Z,19.77
2022-07-27T10:49:21.929Z,19.13
2022-07-27T10:52:49.816Z,19.15
2022-07-27T10:55:55.882Z,17.26
2022-07-27T10:59:01.540Z,17.19
2022-07-27T11:02:15.404Z,18.45
2022-07-27T11:09:32.365Z,17.57
2022-07-27T11:12:33.247Z,16.96
2022-07-27T11:15:41.583Z,17.15
2022-07-27T11:19:08.174Z,15.42
2022-07-27T11:22:28.692Z,14.89
2022-07-27T11:25:43.636Z,13.77
2022-07-27T11:28:49.861Z,14.32
2022-07-27T11:32:08.825Z,14.35
2022-07-27T11:35:22.628Z,12.72
2022-07-27T11:38:49.218Z,10.30
2022-07-27T11:42:11.919Z,10.79
2022-07-27T11:45:35.910Z,9.60
2022-07-27T11:49:04.279Z,9.73
2022-07-27T11:52:15.398Z,10.38
2022-07-27T11:55:28.247Z,10.67
2022-07-27T11:59:07.971Z,11.27
2022-07-27T12:02:23.226Z,10.60
2022-07-27T12:05:28.919Z,10.07
2022-07-27T12:08:44.037Z,9.77
2022-07-27T12:12:03.577Z,10.56
2022-07-27T12:15:45.141Z,9.44
2022-07-27T12:18:51.314Z,9.36
2022-07-27T12:21:57.529Z,10.01
2022-07-27T12:25:41.577Z,10.31
2022-07-27T12:29:10.504Z,9.82
2022-07-27T12:32:19.264Z,9.55
2022-07-27T12:35:38.790Z,9.34
2022-07-27T12:38:56.055Z,9.95
2022-07-27T12:42:10.652Z,9.54
2022-07-27T12:45:24.219Z,10.87
2022-07-27T12:48:44.375Z,11.16
2022-07-27T12:51:49.951Z,10.76
2022-07-27T12:55:01.264Z,10.86
2022-07-27T12:58:14.391Z,11.25
2022-07-27T13:01:20.014Z,11.87
2022-07-27T13:04:28.283Z,11.65
2022-07-27T13:07:33.991Z,12.86
2022-07-27T13:10:44.732Z,12.53
2022-07-27T13:13:50.389Z,13.11
2022-07-27T13:16:55.956Z,12.96
2022-07-27T13:20:11.550Z,12.48
2022-07-27T13:23:17.205Z,12.67
2022-07-27T13:26:24.157Z,12.72
2022-07-27T13:29:33.372Z,12.85
2022-07-27T13:32:39.189Z,10.97
2022-07-27T13:36:00.522Z,11.32
2022-07-27T13:39:06.880Z,11.33
2022-07-27T13:42:12.578Z,10.60
2022-07-27T13:45:18.169Z,10.21
2022-07-27T13:48:26.000Z,10.26
2022-07-27T13:51:34.287Z,10.09
2022-07-27T13:54:39.845Z,9.14
2022-07-27T13:57:45.577Z,9.24
2022-07-27T14:00:54.730Z,9.03
2022-07-27T14:04:05.005Z,8.59
2022-07-27T14:07:14.747Z,8.43
2022-07-27T14:10:35.390Z,8.29
2022-07-27T14:13:41.175Z,8.22
2022-07-27T14:16:46.843Z,7.72
2022-07-27T14:19:52.537Z,7.38
2022-07-27T14:23:03.632Z,7.68
2022-07-27T14:26:12.222Z,7.94
2022-07-27T14:29:17.819Z,7.85
2022-07-27T14:32:23.303Z,8.01
2022-07-27T14:35:28.938Z,8.33
2022-07-27T14:38:40.668Z,8.53
2022-07-27T14:41:47.608Z,10.19
2022-07-27T14:44:53.100Z,9.19
2022-07-27T14:47:58.683Z,9.03
2022-07-27T14:51:05.105Z,8.45
2022-07-27T14:54:13.432Z,8.25
2022-07-27T14:57:19.973Z,8.76
2022-07-27T15:00:25.620Z,8.84
2022-07-27T15:03:31.304Z,8.95
2022-07-27T15:06:39.625Z,9.11
2022-07-27T15:09:47.877Z,8.98
2022-07-27T15:12:53.473Z,9.32
2022-07-27T15:16:10.073Z,9.25
2022-07-27T15:19:21.179Z,8.79
2022-07-27T15:22:26.802Z,9.20
2022-07-27T15:25:35.322Z,8.41
2022-07-27T15:28:41.035Z,7.84
2022-07-27T15:31:47.031Z,7.55
2022-07-27T15:34:53.826Z,7.61
2022-07-27T15:37:59.383Z,7.09
2022-07-27T15:41:08.274Z,7.09
2022-07-27T15:44:15.117Z,6.79
2022-07-27T15:47:22.075Z,6.35
2022-07-27T15:50:28.487Z,5.83
2022-07-27T15:53:34.114Z,5.09
2022-07-27T15:56:42.309Z,5.75
2022-07-27T15:59:47.848Z,5.42
2022-07-27T16:02:53.798Z,5.35
2022-07-27T16:06:05.282Z,5.20
2022-07-27T16:09:18.369Z,4.89
2022-07-27T16:12:28.769Z,4.99
2022-07-27T16:15:56.808Z,4.85
2022-07-27T16:19:12.841Z,5.01
2022-07-27T16:22:19.384Z,5.03
2022-07-27T16:25:45.863Z,4.93
2022-07-27T16:28:57.254Z,5.09
2022-07-27T16:32:03.077Z,5.15
2022-07-27T16:35:10.311Z,4.80
2022-07-27T16:38:20.853Z,5.70
2022-07-27T16:41:29.689Z,5.22
2022-07-27T16:44:50.003Z,4.89
2022-07-27T16:47:56.420Z,4.78
2022-07-27T16:51:02.781Z,4.84
2022-07-27T16:54:09.524Z,4.41
2022-07-27T16:57:15.054Z,4.81
2022-07-27T17:00:23.455Z,4.57
2022-07-27T17:03:29.204Z,4.68
2022-07-27T17:06:42.384Z,4.66
2022-07-27T17:09:54.234Z,4.73
2022-07-27T17:13:00.083Z,4.20
2022-07-27T17:16:11.215Z,4.39
2022-07-27T17:19:17.018Z,4.45
2022-07-27T17:22:38.019Z,4.49
2022-07-27T17:25:43.540Z,4.47
2022-07-27T17:28:50.410Z,4.94
2022-07-27T17:31:58.650Z,5.06
2022-07-27T17:35:04.283Z,5.26
2022-07-27T17:38:09.841Z,5.19
2022-07-27T17:41:21.786Z,5.71
2022-07-27T17:44:29.768Z,5.58
2022-07-27T17:47:50.691Z,5.60
2022-07-27T17:50:59.160Z,5.90
2022-07-27T17:54:07.908Z,5.70
2022-07-27T17:57:19.331Z,6.09
2022-07-27T18:00:40.460Z,5.81
2022-07-27T18:03:48.744Z,5.71
2022-07-27T18:07:00.042Z,5.50
2022-07-27T18:10:15.926Z,5.81
2022-07-27T18:13:23.204Z,5.86
2022-07-27T18:16:52.844Z,5.73
2022-07-27T18:20:00.953Z,6.56
2022-07-27T18:23:09.189Z,6.12
2022-07-27T18:26:15.245Z,6.60
2022-07-27T18:29:20.764Z,5.91
2022-07-27T18:32:46.422Z,6.15
2022-07-27T18:36:01.260Z,5.66
2022-07-27T18:39:06.936Z,6.08
2022-07-27T18:42:12.744Z,5.82
2022-07-27T18:45:18.500Z,6.17
2022-07-27T18:48:24.023Z,6.40
2022-07-27T18:51:32.436Z,6.43
2022-07-27T18:54:40.532Z,6.83
2022-07-27T18:57:46.510Z,6.85
2022-07-27T19:00:52.289Z,6.89
2022-07-27T19:04:00.533Z,6.77
2022-07-27T19:07:15.594Z,6.93
2022-07-27T19:10:24.053Z,6.84
2022-07-27T19:13:29.614Z,7.14
2022-07-27T19:16:35.987Z,6.73
2022-07-27T19:19:41.657Z,6.58
2022-07-27T19:22:50.292Z,6.99
2022-07-27T19:25:59.465Z,6.94
2022-07-27T19:29:05.053Z,6.94
2022-07-27T19:32:11.241Z,8.50
2022-07-27T19:35:16.810Z,8.74
2022-07-27T19:38:25.482Z,8.50
2022-07-27T19:41:31.156Z,8.18
2022-07-27T19:44:36.885Z,8.55
2022-07-27T19:47:42.443Z,8.30
2022-07-27T19:50:48.148Z,8.61
2022-07-27T19:53:57.100Z,8.12
2022-07-27T19:57:02.738Z,8.22
2022-07-27T20:00:11.443Z,8.34
2022-07-27T20:03:17.097Z,8.17
2022-07-27T20:06:22.712Z,7.84
2022-07-27T20:09:30.944Z,7.87
2022-07-27T20:12:37.108Z,8.18
2022-07-27T20:15:42.984Z,8.28
2022-07-27T20:18:49.603Z,8.51
2022-07-27T20:21:57.387Z,9.26
2022-07-27T20:25:05.572Z,8.99
2022-07-27T20:28:11.206Z,8.64
2022-07-27T20:31:17.427Z,8.49
2022-07-27T20:34:23.264Z,8.76
2022-07-27T20:37:30.206Z,8.54
2022-07-27T20:40:38.469Z,8.83
2022-07-27T20:43:43.932Z,8.72
2022-07-27T20:46:49.502Z,8.61
2022-07-27T20:49:55.049Z,9.13
2022-07-27T20:53:04.408Z,8.70
2022-07-27T20:56:12.637Z,8.83
2022-07-27T20:59:18.432Z,8.58
2022-07-27T21:02:24.413Z,7.79
2022-07-27T21:05:30.394Z,7.67
2022-07-27T21:08:44.358Z,7.10
2022-07-27T21:11:54.666Z,7.06
2022-07-27T21:15:00.243Z,7.04
2022-07-27T21:18:06.153Z,7.23
2022-07-27T21:21:11.711Z,6.94
2022-07-27T21:24:21.409Z,7.30
2022-07-27T21:27:30.177Z,7.04
2022-07-27T21:30:36.761Z,7.38
2022-07-27T21:33:42.366Z,7.40
2022-07-27T21:36:49.583Z,7.51
2022-07-27T21:39:55.089Z,6.93
2022-07-27T21:43:03.828Z,7.13
2022-07-27T21:46:09.495Z,7.12
2022-07-27T21:49:15.857Z,6.92
2022-07-27T21:52:21.544Z,6.24
2022-07-27T21:55:27.347Z,5.73
2022-07-27T21:58:35.579Z,5.93
2022-07-27T22:01:41.292Z,5.68
2022-07-27T22:04:46.947Z,5.84
2022-07-27T22:08:08.275Z,5.83
2022-07-27T22:11:20.674Z,5.89
2022-07-27T22:14:31.455Z,5.41
2022-07-27T22:17:49.846Z,4.96
2022-07-27T22:20:56.548Z,4.95
2022-07-27T22:24:02.113Z,4.98
2022-07-27T22:27:08.770Z,5.19
2022-07-27T22:30:18.243Z,5.29
2022-07-27T22:33:23.816Z,6.11
2022-07-27T22:36:29.438Z,5.75
2022-07-27T22:39:35.097Z,5.58
2022-07-27T22:42:42.157Z,5.27
2022-07-27T22:45:53.677Z,5.17
2022-07-27T22:48:59.444Z,5.34
2022-07-27T22:52:05.833Z,5.48
2022-07-27T22:55:12.372Z,6.12
2022-07-27T22:58:17.925Z,5.68
2022-07-27T23:01:46.719Z,5.71
2022-07-27T23:04:51.990Z,5.20
2022-07-27T23:07:57.630Z,5.13
2022-07-27T23:11:04.261Z,4.99
2022-07-27T23:14:20.971Z,5.17
2022-07-27T23:17:31.599Z,4.80
2022-07-27T23:20:37.831Z,4.94
2022-07-27T23:23:51.008Z,5.18
2022-07-27T23:26:59.853Z,4.73
2022-07-27T23:30:11.461Z,4.49
2022-07-27T23:33:21.642Z,4.46
2022-07-27T23:36:27.371Z,4.32
2022-07-27T23:39:33.021Z,4.22
2022-07-27T23:42:38.590Z,4.44
2022-07-27T23:45:44.161Z,4.63
2022-07-27T23:49:11.651Z,4.57
2022-07-27T23:52:26.656Z,5.02
2022-07-27T23:55:38.234Z,4.27
2022-07-27T23:58:50.038Z,4.37
